Time;durP1;ratioP1;P1;durP2;ratioP2;P2;SDS_P1;SDS_P2;PMS_P1;PMS_P2;Temp;Humidity;BMP_temperature;BMP_pressure;BME280_temperature;BME280_humidity;BME280_pressure;Samples;Min_cycle;Max_cycle;Signal;HPM_P1;HPM_P2
2023/06/13 00:00:05;;;;;;;11.07;4.40;;;;;;;21.14;41.12;101290.69;4993079;28;20030;-73
2023/06/13 00:02:31;;;;;;;7.10;4.18;;;;;;;21.11;41.07;101288.50;4975526;28;20531;-73
2023/06/13 00:04:57;;;;;;;7.05;4.35;;;;;;;21.06;41.73;101291.97;4993083;28;20030;-73
2023/06/13 00:07:23;;;;;;;6.88;4.50;;;;;;;20.96;41.67;101295.41;4992874;28;20397;-73
2023/06/13 00:09:49;;;;;;;11.50;5.18;;;;;;;20.96;41.57;101298.13;4992972;28;20078;-73
2023/06/13 00:12:14;;;;;;;10.52;4.65;;;;;;;20.92;41.61;101282.63;4992681;28;20117;-73
2023/06/13 00:14:40;;;;;;;10.32;5.47;;;;;;;20.93;42.11;101295.09;5011444;28;20416;-73
2023/06/13 00:17:06;;;;;;;9.18;3.97;;;;;;;20.83;41.97;101286.84;5011462;28;20036;-73
2023/06/13 00:19:31;;;;;;;8.30;4.30;;;;;;;20.75;42.73;101291.66;5011350;28;20025;-73
2023/06/13 00:21:58;;;;;;;8.52;4.47;;;;;;;20.64;42.42;101280.94;5011166;28;20034;-73
2023/06/13 00:24:23;;;;;;;9.60;4.95;;;;;;;20.67;42.68;101293.97;4992279;28;20053;-73
2023/06/13 00:26:49;;;;;;;11.90;6.07;;;;;;;20.60;43.13;101287.94;4992321;28;20461;-73
2023/06/13 00:29:14;;;;;;;8.48;4.95;;;;;;;20.55;43.32;101292.22;4992559;28;20035;-73
2023/06/13 00:31:40;;;;;;;8.13;4.65;;;;;;;20.40;43.90;101286.59;4992437;28;20081;-73
2023/06/13 00:34:05;;;;;;;8.93;4.70;;;;;;;20.36;43.62;101285.47;4992025;28;20035;-73
2023/06/13 00:36:34;;;;;;;8.20;4.60;;;;;;;20.30;44.22;101294.56;4992181;28;20069;-73
2023/06/13 00:39:00;;;;;;;8.15;5.05;;;;;;;20.32;43.97;101285.13;4992695;28;20432;-73
2023/06/13 00:41:25;;;;;;;13.60;5.75;;;;;;;20.27;44.78;101282.34;4992171;28;20026;-73
2023/06/13 00:43:51;;;;;;;10.40;4.93;;;;;;;20.23;44.76;101292.06;4992562;28;20034;-73
2023/06/13 00:46:24;;;;;;;10.98;5.90;;;;;;;20.14;44.65;101285.44;4992121;28;20038;-73
2023/06/13 00:48:49;;;;;;;8.25;5.32;;;;;;;20.10;45.10;101290.53;4992062;28;20531;-73
2023/06/13 00:51:16;;;;;;;8.05;4.93;;;;;;;20.07;44.95;101282.91;4992005;28;20042;-73
2023/06/13 00:53:45;;;;;;;8.13;4.53;;;;;;;19.97;45.44;101287.38;5010887;28;20025;-73
2023/06/13 00:56:10;;;;;;;9.90;5.18;;;;;;;19.84;45.72;101275.00;5010928;28;20033;-73
2023/06/13 00:58:36;;;;;;;7.43;5.00;;;;;;;19.81;45.90;101272.78;5010604;28;20034;-73
2023/06/13 01:01:02;;;;;;;11.60;5.20;;;;;;;19.75;46.14;101276.47;5010544;28;20496;-73
2023/06/13 01:03:29;;;;;;;9.70;5.47;;;;;;;19.79;45.83;101281.13;5010579;28;20017;-73
2023/06/13 01:05:55;;;;;;;7.13;4.88;;;;;;;19.83;46.25;101276.03;5010525;28;20029;-73
2023/06/13 01:08:23;;;;;;;10.70;4.93;;;;;;;19.80;45.92;101276.53;5010467;28;20045;-73
2023/06/13 01:11:06;;;;;;;7.55;5.43;;;;;;;19.86;45.54;101272.88;5010339;28;20477;-73
2023/06/13 01:13:40;;;;;;;10.70;4.82;;;;;;;19.84;46.60;101267.69;5010403;28;20033;-73
2023/06/13 01:16:23;;;;;;;10.55;5.63;;;;;;;19.76;46.13;101264.59;5010618;28;20025;-73
2023/06/13 01:18:51;;;;;;;10.63;5.60;;;;;;;19.65;46.54;101259.00;5010243;28;20109;-73
2023/06/13 01:21:18;;;;;;;16.13;6.30;;;;;;;19.63;47.02;101265.72;5010394;28;20389;-73
2023/06/13 01:24:05;;;;;;;8.90;4.85;;;;;;;19.62;46.42;101264.91;4991452;28;20096;-73
2023/06/13 01:26:54;;;;;;;10.73;5.90;;;;;;;19.54;46.97;101268.00;4991286;28;20133;-73
2023/06/13 01:29:20;;;;;;;9.60;5.78;;;;;;;19.52;47.32;101266.59;4991450;28;20025;-73
2023/06/13 01:31:52;;;;;;;8.63;5.18;;;;;;;19.45;47.28;101264.06;4991481;28;20386;-73
2023/06/13 01:34:18;;;;;;;11.90;6.03;;;;;;;19.37;48.05;101270.69;4983427;28;20037;-73
2023/06/13 01:36:44;;;;;;;11.27;5.88;;;;;;;19.28;48.22;101264.03;5009959;28;20018;-73
2023/06/13 01:39:09;;;;;;;12.27;5.80;;;;;;;19.24;48.88;101268.31;5009960;28;20424;-73
2023/06/13 01:41:35;;;;;;;12.98;6.30;;;;;;;19.19;48.99;101260.13;5005382;28;20038;-73
2023/06/13 01:44:02;;;;;;;10.45;5.28;;;;;;;19.23;48.63;101272.06;4990344;28;20038;-73
2023/06/13 01:46:30;;;;;;;8.70;5.57;;;;;;;19.13;49.13;101271.91;4990978;28;20093;-73
2023/06/13 01:49:03;;;;;;;9.68;5.35;;;;;;;19.12;49.09;101268.38;4991036;28;20117;-73
2023/06/13 01:51:50;;;;;;;9.75;5.88;;;;;;;19.09;49.18;101258.03;4991049;28;20109;-73
2023/06/13 01:54:20;;;;;;;11.18;6.05;;;;;;;19.16;48.61;101266.00;4991037;28;20030;-73
2023/06/13 01:56:49;;;;;;;10.27;5.50;;;;;;;19.07;49.18;101267.47;4990941;28;20026;-73
2023/06/13 01:59:18;;;;;;;10.30;5.88;;;;;;;19.02;49.47;101262.78;4990775;28;20026;-73
2023/06/13 02:01:45;;;;;;;9.90;5.93;;;;;;;19.01;50.36;101263.84;4990833;28;20394;-73
2023/06/13 02:04:11;;;;;;;8.80;5.35;;;;;;;18.88;50.90;101245.22;4990738;28;20092;-73
2023/06/13 02:06:36;;;;;;;9.50;5.88;;;;;;;18.97;50.27;101255.41;4990605;28;20046;-73
2023/06/13 02:09:03;;;;;;;12.18;6.30;;;;;;;18.94;50.47;101252.34;4990708;28;20505;-73
2023/06/13 02:11:29;;;;;;;11.27;5.38;;;;;;;18.91;49.70;101255.53;4990770;28;20133;-73
2023/06/13 02:13:55;;;;;;;10.98;5.40;;;;;;;18.88;50.26;101259.56;4973214;28;20113;-73
2023/06/13 02:16:25;;;;;;;9.05;5.10;;;;;;;18.89;50.40;101255.81;4990506;28;20049;-73
2023/06/13 02:18:51;;;;;;;10.63;5.85;;;;;;;18.80;50.57;101258.06;4991063;28;20062;-73
2023/06/13 02:21:16;;;;;;;10.75;5.53;;;;;;;18.72;50.92;101249.50;4990543;28;20038;-73
2023/06/13 02:23:42;;;;;;;11.10;5.03;;;;;;;18.68;50.64;101253.72;4990541;28;20038;-73
2023/06/13 02:26:07;;;;;;;15.48;6.82;;;;;;;18.64;50.27;101252.59;4990368;28;20105;-73
2023/06/13 02:28:33;;;;;;;8.77;5.40;;;;;;;18.59;50.95;101261.41;4990282;28;20081;-73
2023/06/13 02:30:59;;;;;;;9.00;5.45;;;;;;;18.56;50.57;101256.47;4990245;28;20092;-73
2023/06/13 02:33:24;;;;;;;11.40;5.93;;;;;;;18.43;51.25;101248.66;4990403;28;20036;-73
2023/06/13 02:35:50;;;;;;;9.90;5.32;;;;;;;18.45;51.16;101251.94;4990247;28;20034;-73
2023/06/13 02:38:16;;;;;;;9.75;5.72;;;;;;;18.40;51.43;101252.66;4990310;28;20470;-73
2023/06/13 02:40:41;;;;;;;11.38;5.68;;;;;;;18.34;51.83;101256.31;4990058;28;20038;-73
2023/06/13 02:43:07;;;;;;;12.23;5.75;;;;;;;18.30;52.07;101261.34;4990186;28;21108;-73
2023/06/13 02:45:32;;;;;;;11.88;6.20;;;;;;;18.24;52.32;101262.31;4972478;28;20394;-73
2023/06/13 02:47:58;;;;;;;9.85;5.97;;;;;;;18.24;52.58;101266.91;4989969;28;20034;-73
2023/06/13 02:50:23;;;;;;;8.35;5.45;;;;;;;18.18;52.46;101258.69;4990103;28;20041;-73
2023/06/13 02:52:49;;;;;;;15.98;8.00;;;;;;;18.14;52.77;101268.31;4989974;28;20157;-73
2023/06/13 02:55:14;;;;;;;10.30;5.68;;;;;;;18.14;53.20;101264.78;4995912;28;20033;-73
2023/06/13 02:57:40;;;;;;;8.75;5.35;;;;;;;18.09;53.11;101261.97;5008647;28;20030;-73
2023/06/13 03:00:08;;;;;;;10.88;5.40;;;;;;;18.05;53.66;101260.81;5008755;28;20044;-73
2023/06/13 03:02:36;;;;;;;9.90;6.25;;;;;;;18.14;54.45;101262.09;4990993;28;20044;-73
2023/06/13 03:05:04;;;;;;;11.27;5.40;;;;;;;18.07;54.38;101264.09;5008659;28;20033;-73
2023/06/13 03:07:31;;;;;;;11.27;5.32;;;;;;;18.10;53.85;101260.91;5008652;28;20038;-73
2023/06/13 03:09:58;;;;;;;11.02;5.95;;;;;;;18.09;53.62;101261.97;5008665;28;20377;-73
2023/06/13 03:12:23;;;;;;;9.07;5.80;;;;;;;18.06;54.09;101260.56;5008786;28;20124;-73
2023/06/13 03:14:49;;;;;;;10.95;5.65;;;;;;;18.03;53.97;101268.34;5008669;28;20124;-73
2023/06/13 03:17:16;;;;;;;10.85;6.05;;;;;;;17.95;54.60;101264.94;5008524;28;20057;-73
2023/06/13 03:19:42;;;;;;;9.68;6.07;;;;;;;17.95;54.53;101273.03;5004285;28;20477;-73
2023/06/13 03:22:13;;;;;;;11.13;6.57;;;;;;;17.85;54.85;101263.88;5007102;28;20087;-73
2023/06/13 03:24:40;;;;;;;10.35;5.53;;;;;;;17.84;55.06;101270.31;5008539;28;20050;-73
2023/06/13 03:27:06;;;;;;;9.48;6.38;;;;;;;17.82;55.06;101264.34;5008299;28;20054;-73
2023/06/13 03:29:31;;;;;;;11.73;6.80;;;;;;;17.81;54.77;101252.72;5008452;28;20083;-73
2023/06/13 03:31:57;;;;;;;10.70;6.47;;;;;;;17.74;55.17;101260.09;5008353;28;20116;-73
2023/06/13 03:34:24;;;;;;;11.15;6.53;;;;;;;17.77;54.60;101248.00;5008378;28;20435;-73
2023/06/13 03:36:49;;;;;;;11.93;6.57;;;;;;;17.72;55.07;101257.63;5008408;28;20397;-73
2023/06/13 03:39:15;;;;;;;13.30;6.68;;;;;;;17.69;55.42;101247.31;4990662;28;20034;-73
2023/06/13 03:41:41;;;;;;;14.98;7.15;;;;;;;17.65;55.79;101254.22;5008252;28;20046;-74
2023/06/13 03:44:06;;;;;;;15.65;6.80;;;;;;;17.61;55.85;101252.22;5008334;28;20034;-73
2023/06/13 03:46:31;;;;;;;12.27;6.90;;;;;;;17.55;55.86;101251.25;5008247;28;20044;-73
2023/06/13 03:48:57;;;;;;;11.38;6.13;;;;;;;17.55;55.31;101251.25;4990390;28;20477;-73
2023/06/13 03:51:22;;;;;;;11.27;6.85;;;;;;;17.55;55.64;101251.25;5008518;28;20029;-73
2023/06/13 03:53:47;;;;;;;14.00;7.43;;;;;;;17.54;55.62;101249.63;5008337;28;20547;-73
2023/06/13 03:56:13;;;;;;;13.30;7.15;;;;;;;17.53;55.98;101250.69;5008143;28;20034;-73
2023/06/13 03:58:38;;;;;;;16.25;6.72;;;;;;;17.52;56.46;101252.56;5008192;28;20049;-73
2023/06/13 04:01:03;;;;;;;13.88;6.55;;;;;;;17.48;55.74;101245.19;5008049;28;20527;-73
2023/06/13 04:03:29;;;;;;;10.75;6.97;;;;;;;17.51;56.56;101253.63;5008193;28;20034;-73
2023/06/13 04:05:54;;;;;;;12.27;6.68;;;;;;;17.52;57.17;101252.56;5008237;28;20109;-73
2023/06/13 04:08:20;;;;;;;14.25;7.97;;;;;;;17.51;56.70;101256.31;5009420;28;20096;-73
2023/06/13 04:10:46;;;;;;;12.65;6.63;;;;;;;17.52;57.25;101263.34;5011478;28;20104;-72
2023/06/13 04:13:11;;;;;;;18.63;7.63;;;;;;;17.51;56.72;101267.09;5011560;28;20358;-73
2023/06/13 04:15:37;;;;;;;12.38;5.93;;;;;;;17.53;57.14;101264.19;5011491;28;20433;-73
2023/06/13 04:18:03;;;;;;;11.57;5.40;;;;;;;17.53;56.87;101266.88;5011387;28;20560;-73
2023/06/13 04:20:28;;;;;;;14.82;8.10;;;;;;;17.62;56.09;101270.88;5011532;28;20026;-73
2023/06/13 04:22:54;;;;;;;15.07;6.78;;;;;;;17.61;56.62;101265.72;4992293;28;20090;-73
2023/06/13 04:25:19;;;;;;;15.27;7.07;;;;;;;17.65;56.07;101265.00;4974994;28;20414;-73
2023/06/13 04:27:45;;;;;;;13.75;6.93;;;;;;;17.68;56.35;101269.94;4992493;28;20130;-73
2023/06/13 04:30:12;;;;;;;11.45;5.93;;;;;;;17.68;56.76;101271.81;4992669;28;20122;-73
2023/06/13 04:32:39;;;;;;;11.60;6.93;;;;;;;17.71;56.66;101266.78;4992806;28;20468;-73
2023/06/13 04:35:05;;;;;;;12.02;6.63;;;;;;;17.75;56.55;101265.25;4992222;28;20034;-73
2023/06/13 04:37:31;;;;;;;13.88;7.60;;;;;;;17.83;55.67;101272.19;4992536;28;20532;-73
2023/06/13 04:39:57;;;;;;;15.70;6.70;;;;;;;17.93;55.66;101277.03;4974838;28;20038;-73
2023/06/13 04:42:27;;;;;;;11.43;5.97;;;;;;;18.19;55.35;101273.00;4992193;28;20040;-72
2023/06/13 04:44:53;;;;;;;11.73;6.22;;;;;;;18.52;53.99;101279.63;4992132;28;20152;-72
2023/06/13 04:47:20;;;;;;;13.43;6.63;;;;;;;18.54;54.27;101280.22;4992170;28;20073;-73
2023/06/13 04:49:45;;;;;;;19.00;6.72;;;;;;;18.48;54.03;101283.88;4992298;28;20030;-72
2023/06/13 04:52:14;;;;;;;11.60;7.28;;;;;;;18.32;54.45;101275.44;4992107;28;20036;-73
2023/06/13 04:54:39;;;;;;;10.00;5.82;;;;;;;18.34;54.51;101286.84;4992140;28;20062;-73
2023/06/13 04:57:05;;;;;;;11.27;6.82;;;;;;;18.34;54.84;101284.13;4991988;28;20054;-73
2023/06/13 04:59:31;;;;;;;11.20;6.18;;;;;;;18.36;55.09;101287.41;4992051;28;20037;-73
2023/06/13 05:01:56;;;;;;;13.68;7.80;;;;;;;18.36;54.88;101284.69;4991362;28;20501;-73
2023/06/13 05:04:21;;;;;;;15.23;6.57;;;;;;;18.43;55.03;101286.47;4991973;28;20246;-73
2023/06/13 05:06:47;;;;;;;13.32;7.07;;;;;;;18.73;54.34;101291.66;4992041;28;20069;-73
2023/06/13 05:09:14;;;;;;;9.80;6.47;;;;;;;18.98;53.69;101291.38;4991842;28;20505;-73
2023/06/13 05:11:40;;;;;;;15.43;6.57;;;;;;;18.94;53.14;101295.59;4991532;28;20473;-73
2023/06/13 05:14:05;;;;;;;15.27;6.85;;;;;;;18.80;54.12;101290.50;4991526;28;20034;-73
2023/06/13 05:16:31;;;;;;;14.02;7.38;;;;;;;18.79;54.14;101299.66;4991611;28;20057;-74
2023/06/13 05:18:57;;;;;;;11.70;7.15;;;;;;;18.86;54.33;101307.63;4990856;28;20038;-73
2023/06/13 05:21:22;;;;;;;13.57;6.72;;;;;;;18.92;53.87;101300.47;4991641;28;20385;-73
2023/06/13 05:23:48;;;;;;;12.38;6.75;;;;;;;18.93;53.88;101293.97;4992055;28;20026;-73
2023/06/13 05:26:13;;;;;;;12.73;6.45;;;;;;;18.91;53.81;101291.50;4991428;28;20078;-73
2023/06/13 05:28:40;;;;;;;9.57;6.75;;;;;;;18.97;54.09;101290.56;4991467;28;20474;-73
2023/06/13 05:31:06;;;;;;;11.85;6.40;;;;;;;18.95;54.33;101286.44;4991290;28;20158;-73
2023/06/13 05:33:33;;;;;;;11.88;6.82;;;;;;;19.03;54.10;101294.97;4991430;28;20053;-73
2023/06/13 05:35:58;;;;;;;12.63;7.20;;;;;;;19.04;53.96;101299.31;5008073;28;20497;-73
2023/06/13 05:38:24;;;;;;;12.98;6.13;;;;;;;19.10;52.81;101297.56;5009901;28;20025;-73
2023/06/13 05:40:49;;;;;;;9.40;5.63;;;;;;;19.16;53.22;101295.75;5009881;28;20033;-73
2023/06/13 05:43:19;;;;;;;12.38;7.60;;;;;;;19.19;52.51;101296.09;5009893;28;20496;-73
2023/06/13 05:45:45;;;;;;;10.07;6.18;;;;;;;19.24;53.10;101290.75;5009915;28;20030;-73
2023/06/13 05:48:10;;;;;;;10.93;6.70;;;;;;;19.36;51.86;101296.13;5009742;28;20034;-73
2023/06/13 05:50:36;;;;;;;12.88;7.18;;;;;;;19.37;51.87;101289.63;4976344;28;20041;-73
2023/06/13 05:53:01;;;;;;;14.18;6.97;;;;;;;19.52;52.30;101299.06;4957501;28;20062;-73
2023/06/13 05:55:26;;;;;;;13.52;6.55;;;;;;;19.85;51.51;101300.97;4973473;28;20066;-73
2023/06/13 05:57:52;;;;;;;10.75;6.18;;;;;;;20.17;50.36;101303.06;4990966;28;20030;-73
2023/06/13 06:00:18;;;;;;;11.90;7.47;;;;;;;20.38;49.50;101301.44;4990853;28;20125;-74
2023/06/13 06:02:45;;;;;;;9.75;6.35;;;;;;;20.36;49.10;101305.25;4992940;28;20498;-74
2023/06/13 06:05:11;;;;;;;13.05;6.20;;;;;;;20.28;49.78;101299.44;5009610;28;20044;-74
2023/06/13 06:07:37;;;;;;;12.68;6.82;;;;;;;20.09;50.14;101310.53;5009242;28;20062;-73
2023/06/13 06:10:05;;;;;;;11.13;6.43;;;;;;;20.07;50.42;101306.47;4991700;28;20042;-73
2023/06/13 06:12:30;;;;;;;17.15;7.20;;;;;;;20.00;50.54;101300.41;4990501;28;20036;-73
2023/06/13 06:14:56;;;;;;;11.60;6.60;;;;;;;20.01;51.80;101300.13;4990453;28;20034;-73
2023/06/13 06:17:21;;;;;;;14.10;6.88;;;;;;;20.00;50.42;101303.09;4990493;28;20022;-74
2023/06/13 06:19:50;;;;;;;11.18;6.47;;;;;;;19.98;51.23;101306.06;4990546;28;20042;-73
2023/06/13 06:22:16;;;;;;;12.35;6.72;;;;;;;19.92;51.15;101291.63;4990447;28;20040;-74
2023/06/13 06:24:42;;;;;;;10.13;5.22;;;;;;;20.06;51.07;101311.03;4972978;28;20074;-73
2023/06/13 06:27:07;;;;;;;9.10;6.15;;;;;;;20.14;51.32;101307.09;4990218;28;20046;-73
2023/06/13 06:29:32;;;;;;;10.90;5.90;;;;;;;20.21;51.97;101312.34;4990331;28;20539;-73
2023/06/13 06:31:58;;;;;;;12.90;7.03;;;;;;;20.25;50.21;101306.19;4972233;28;20045;-74
2023/06/13 06:34:23;;;;;;;12.55;5.72;;;;;;;20.22;50.39;101298.53;4990144;28;20053;-73
2023/06/13 06:36:49;;;;;;;10.95;6.30;;;;;;;20.21;51.28;101293.38;4990252;28;20078;-73
2023/06/13 06:39:15;;;;;;;16.20;7.78;;;;;;;20.29;50.24;101312.72;4990125;28;20478;-74
2023/06/13 06:41:41;;;;;;;12.75;6.78;;;;;;;20.25;49.67;101311.59;5007316;28;20059;-75
2023/06/13 06:44:07;;;;;;;13.68;7.35;;;;;;;20.23;50.42;101313.72;5001816;28;20045;-71
2023/06/13 06:46:32;;;;;;;11.25;6.47;;;;;;;20.26;51.18;101310.53;4993520;28;20398;-75
2023/06/13 06:48:58;;;;;;;12.93;7.97;;;;;;;20.30;50.24;101317.09;4997411;28;20512;-72
2023/06/13 06:51:23;;;;;;;10.50;6.20;;;;;;;20.32;50.52;101316.81;4990088;28;20080;-72
2023/06/13 06:53:50;;;;;;;11.98;6.25;;;;;;;20.32;50.00;101311.41;4998997;28;20026;-73
2023/06/13 06:56:15;;;;;;;11.15;5.95;;;;;;;20.32;49.54;101314.13;5008783;28;20488;-73
2023/06/13 06:58:41;;;;;;;13.02;6.32;;;;;;;20.37;50.26;101308.75;4984879;28;20038;-73
2023/06/13 07:01:06;;;;;;;11.45;6.28;;;;;;;20.41;50.04;101311.78;4997497;28;20080;-73
2023/06/13 07:03:32;;;;;;;12.10;5.85;;;;;;;20.47;51.17;101308.09;4996148;28;20501;-72
2023/06/13 07:05:57;;;;;;;13.43;7.53;;;;;;;20.49;50.43;101306.75;4990060;28;20493;-73
2023/06/13 07:08:22;;;;;;;9.88;6.10;;;;;;;20.54;49.95;101308.72;4991311;28;20031;-72
2023/06/13 07:10:48;;;;;;;14.32;6.38;;;;;;;20.57;49.90;101303.66;4990484;28;20177;-72
2023/06/13 07:13:13;;;;;;;12.82;6.35;;;;;;;20.64;50.69;101308.84;4990236;28;20034;-72
2023/06/13 07:15:38;;;;;;;12.02;6.03;;;;;;;20.75;50.78;101312.50;4989898;28;20169;-72
2023/06/13 07:18:04;;;;;;;13.82;6.50;;;;;;;20.80;49.56;101307.16;4989541;28;20026;-72
2023/06/13 07:20:30;;;;;;;10.98;6.65;;;;;;;20.86;50.12;101317.00;4989923;28;20034;-73
2023/06/13 07:22:55;;;;;;;14.00;6.13;;;;;;;20.83;49.63;101303.09;4989595;28;20026;-72
2023/06/13 07:25:20;;;;;;;13.68;7.70;;;;;;;20.85;49.20;101311.81;4989608;28;20055;-73
2023/06/13 07:27:46;;;;;;;11.52;6.65;;;;;;;20.98;50.27;101323.06;4984884;28;20046;-71
2023/06/13 07:30:11;;;;;;;12.50;6.40;;;;;;;21.02;49.97;101317.97;5005088;28;20038;-74
2023/06/13 07:32:37;;;;;;;10.63;6.85;;;;;;;21.16;51.19;101321.09;4972333;28;20039;-75
2023/06/13 07:35:03;;;;;;;11.98;6.38;;;;;;;21.16;49.16;101307.53;4989706;28;20038;-74
2023/06/13 07:37:28;;;;;;;12.85;6.63;;;;;;;21.27;49.83;101317.41;4989618;28;20022;-75
2023/06/13 07:39:53;;;;;;;10.35;7.07;;;;;;;21.33;49.21;101319.09;4989689;28;20042;-74
2023/06/13 07:42:19;;;;;;;12.52;6.25;;;;;;;21.38;49.56;101307.53;4991174;28;20038;-74
2023/06/13 07:44:44;;;;;;;12.73;5.80;;;;;;;21.49;48.64;101311.94;4959671;28;20030;-74
2023/06/13 07:47:10;;;;;;;10.30;6.13;;;;;;;21.58;48.49;101309.56;4993436;28;20478;-74
2023/06/13 07:49:35;;;;;;;9.75;5.32;;;;;;;21.64;48.49;101306.66;4993266;28;20569;-74
2023/06/13 07:52:01;;;;;;;10.05;6.05;;;;;;;21.72;48.54;101310.78;4993171;28;20117;-74
2023/06/13 07:54:26;;;;;;;12.45;6.35;;;;;;;21.71;47.45;101300.16;4993876;28;20049;-73
2023/06/13 07:56:52;;;;;;;15.15;6.43;;;;;;;21.83;48.82;101315.19;4995545;28;20049;-75
2023/06/13 07:59:18;;;;;;;10.18;6.20;;;;;;;21.92;48.52;101310.09;4995484;28;20418;-73
2023/06/13 08:01:43;;;;;;;14.98;7.35;;;;;;;21.94;46.18;101307.94;4995582;28;20083;-73
2023/06/13 08:04:08;;;;;;;11.68;5.85;;;;;;;21.99;46.24;101307.16;4996601;28;20426;-74
2023/06/13 08:06:34;;;;;;;11.38;5.78;;;;;;;22.08;47.25;101305.56;4996486;28;20061;-74
2023/06/13 08:08:59;;;;;;;9.68;4.75;;;;;;;22.11;46.21;101305.03;4994487;28;20026;-75
2023/06/13 08:11:25;;;;;;;10.32;5.28;;;;;;;22.38;46.38;101304.16;4994820;28;20501;-72
2023/06/13 08:13:50;;;;;;;10.50;6.10;;;;;;;22.88;44.84;101303.50;4994824;28;20044;-73
2023/06/13 08:16:15;;;;;;;9.05;5.28;;;;;;;24.24;43.03;101302.19;4978250;28;20133;-74
2023/06/13 08:18:41;;;;;;;9.40;5.90;;;;;;;26.61;37.83;101309.13;4992390;28;20030;-72
2023/06/13 08:21:06;;;;;;;10.90;5.30;;;;;;;28.92;34.01;101308.66;4992629;28;20088;-73
2023/06/13 08:23:32;;;;;;;9.75;5.63;;;;;;;30.41;30.45;101304.91;4992483;28;20030;-73
2023/06/13 08:25:57;;;;;;;10.73;4.93;;;;;;;31.58;29.03;101304.00;4983616;28;20086;-72
2023/06/13 08:28:23;;;;;;;9.98;5.43;;;;;;;32.90;27.28;101304.97;4992467;28;20033;-73
2023/06/13 08:30:49;;;;;;;9.60;5.13;;;;;;;33.95;24.62;101304.78;5001840;28;20022;-73
2023/06/13 08:33:14;;;;;;;10.43;5.85;;;;;;;34.45;23.43;101306.41;4998098;28;20026;-73
2023/06/13 08:35:40;;;;;;;9.35;5.22;;;;;;;34.44;23.57;101302.03;4992412;28;20088;-73
2023/06/13 08:38:05;;;;;;;7.80;4.88;;;;;;;35.27;22.40;101300.56;4996602;28;20068;-73
2023/06/13 08:40:31;;;;;;;6.88;4.30;;;;;;;35.37;23.00;101292.84;5003217;28;20034;-73
2023/06/13 08:43:00;;;;;;;9.65;5.13;;;;;;;35.68;22.55;101297.66;5009234;28;20057;-73
2023/06/13 08:45:25;;;;;;;11.70;5.13;;;;;;;36.35;21.33;101284.66;5001323;28;20120;-73
2023/06/13 08:47:52;;;;;;;16.98;4.65;;;;;;;36.27;21.81;101290.41;5005875;28;20033;-73
2023/06/13 08:50:23;;;;;;;8.63;4.65;;;;;;;36.48;21.09;101295.66;5009996;28;20040;-73
2023/06/13 08:52:50;;;;;;;11.00;4.63;;;;;;;36.60;20.44;101279.69;4987444;28;20042;-73
2023/06/13 08:55:17;;;;;;;7.68;4.97;;;;;;;36.55;20.09;101282.75;5006322;28;20033;-73
2023/06/13 08:57:45;;;;;;;9.40;5.55;;;;;;;36.67;20.56;101284.56;5005007;28;20496;-73
2023/06/13 09:00:13;;;;;;;8.07;4.75;;;;;;;36.27;20.62;101277.31;5001114;28;20118;-73
2023/06/13 09:02:46;;;;;;;9.05;4.95;;;;;;;36.20;21.13;101283.50;4997379;28;20038;-73
2023/06/13 09:05:15;;;;;;;6.75;4.63;;;;;;;35.20;22.17;101280.94;5000192;28;20121;-73
2023/06/13 09:07:42;;;;;;;10.38;4.47;;;;;;;33.40;24.37;101281.94;4999701;28;20089;-73
2023/06/13 09:10:10;;;;;;;9.15;4.90;;;;;;;31.47;26.22;101277.94;5003223;28;20081;-73
2023/06/13 09:12:36;;;;;;;11.45;5.07;;;;;;;29.98;27.43;101278.06;5001569;28;20049;-73
2023/06/13 09:15:03;;;;;;;12.13;5.35;;;;;;;29.09;30.57;101282.53;4992941;28;20034;-73
2023/06/13 09:17:28;;;;;;;10.05;5.65;;;;;;;28.61;31.45;101276.44;4994690;28;20030;-72
2023/06/13 09:19:54;;;;;;;10.98;6.57;;;;;;;28.04;31.10;101272.38;4992061;28;20056;-73
2023/06/13 09:22:19;;;;;;;10.38;5.68;;;;;;;27.56;32.13;101272.69;5001385;28;20437;-72
2023/06/13 09:24:46;;;;;;;6.15;4.20;;;;;;;27.19;32.23;101277.13;4996686;28;20030;-73
2023/06/13 09:27:12;;;;;;;12.57;5.05;;;;;;;26.82;32.95;101271.34;5000274;28;20101;-73
2023/06/13 09:29:38;;;;;;;8.40;5.15;;;;;;;26.76;34.58;101274.47;5000010;28;20080;-72
2023/06/13 09:32:05;;;;;;;11.18;4.75;;;;;;;26.63;32.57;101276.81;4991317;28;20037;-73
2023/06/13 09:34:30;;;;;;;8.75;4.72;;;;;;;26.60;33.07;101282.09;5004308;28;20117;-72
2023/06/13 09:36:57;;;;;;;11.00;5.13;;;;;;;26.31;31.60;101269.28;5008069;28;20112;-73
2023/06/13 09:39:23;;;;;;;9.32;4.95;;;;;;;26.40;32.84;101274.91;5002156;28;20026;-73
2023/06/13 09:41:57;;;;;;;9.10;5.60;;;;;;;26.36;32.23;101273.88;4994096;28;20034;-74
2023/06/13 09:44:25;;;;;;;11.52;4.90;;;;;;;26.39;32.87;101268.63;4973630;28;20034;-73
2023/06/13 09:46:53;;;;;;;14.52;4.95;;;;;;;26.43;33.43;101266.91;4991140;28;20030;-73
2023/06/13 09:49:19;;;;;;;11.55;4.70;;;;;;;26.43;32.51;101277.06;4991198;28;20042;-73
2023/06/13 09:51:45;;;;;;;8.65;4.07;;;;;;;26.41;32.36;101268.34;4998718;28;20038;-73
2023/06/13 09:54:11;;;;;;;9.07;5.03;;;;;;;26.44;31.51;101270.50;5007604;28;20465;-73
2023/06/13 09:56:40;;;;;;;12.50;4.10;;;;;;;26.58;32.91;101262.41;4990808;28;20124;-73
2023/06/13 09:59:05;;;;;;;8.50;4.70;;;;;;;26.56;32.71;101270.88;5004810;28;20021;-73
2023/06/13 10:01:34;;;;;;;7.25;4.68;;;;;;;26.57;32.05;101260.78;5008498;28;20092;-73
2023/06/13 10:04:01;;;;;;;6.32;3.97;;;;;;;26.57;32.57;101258.06;4990514;28;20084;-73
2023/06/13 10:06:26;;;;;;;12.38;6.00;;;;;;;26.64;32.43;101262.03;4989963;28;20034;-73
2023/06/13 10:08:52;;;;;;;6.38;4.25;;;;;;;26.72;31.35;101259.75;5001699;28;20041;-72
2023/06/13 10:11:23;;;;;;;7.78;4.20;;;;;;;26.63;31.24;101262.34;5001915;28;20652;-72
2023/06/13 10:14:24;;;;;;;7.45;5.15;;;;;;;26.71;30.38;101258.94;4996470;28;20465;-73
2023/06/13 10:16:56;;;;;;;9.68;4.90;;;;;;;26.60;31.98;101266.47;4895585;29;20036;-72
2023/06/13 10:19:23;;;;;;;9.20;5.05;;;;;;;26.72;30.49;101257.00;4975903;28;20157;-72
2023/06/13 10:21:50;;;;;;;8.20;4.80;;;;;;;26.68;30.55;101259.53;4993731;28;20048;-74
2023/06/13 10:24:16;;;;;;;10.82;4.57;;;;;;;26.74;32.38;101252.88;4993966;28;20045;-74
2023/06/13 10:26:44;;;;;;;10.82;5.55;;;;;;;26.93;31.66;101263.00;4993284;28;20055;-73
2023/06/13 10:29:41;;;;;;;10.77;4.82;;;;;;;27.09;31.74;101247.94;4993272;28;20033;-72
2023/06/13 10:32:30;;;;;;;11.35;4.93;;;;;;;27.07;30.60;101253.75;4985507;28;20042;-73
2023/06/13 10:35:01;;;;;;;10.50;5.00;;;;;;;27.03;29.74;101252.69;4992616;28;20030;-71
2023/06/13 10:37:44;;;;;;;9.77;4.85;;;;;;;27.06;29.95;101252.13;4992746;28;20029;-72
2023/06/13 10:40:34;;;;;;;13.20;4.93;;;;;;;27.22;31.14;101262.84;4991417;28;20038;-76
2023/06/13 10:43:07;;;;;;;6.07;4.55;;;;;;;27.21;29.16;101253.00;4990201;28;20040;-76
2023/06/13 10:45:35;;;;;;;8.85;4.30;;;;;;;27.09;29.17;101248.78;4990093;28;20109;-76
2023/06/13 10:48:05;;;;;;;7.68;4.25;;;;;;;27.12;28.70;101255.59;5009168;28;20417;-75
2023/06/13 10:50:36;;;;;;;10.43;4.50;;;;;;;27.07;28.31;101251.00;4989930;28;20441;-76
2023/06/13 10:53:01;;;;;;;8.80;4.57;;;;;;;27.21;30.06;101253.00;4990086;28;20037;-75
2023/06/13 10:55:29;;;;;;;7.55;4.97;;;;;;;27.22;30.07;101255.47;4990004;28;20034;-75
2023/06/13 10:58:00;;;;;;;9.65;4.38;;;;;;;27.13;29.67;101251.72;4990195;28;20030;-75
2023/06/13 11:00:25;;;;;;;9.75;4.95;;;;;;;27.13;29.78;101253.66;4990169;28;20150;-75
2023/06/13 11:03:07;;;;;;;13.45;5.18;;;;;;;27.25;30.91;101249.38;4990068;28;20101;-75
2023/06/13 11:05:53;;;;;;;6.72;4.30;;;;;;;27.23;31.70;101251.59;4989754;28;20026;-75
2023/06/13 11:08:24;;;;;;;9.02;4.53;;;;;;;27.17;30.62;101249.19;4981862;28;20034;-76
2023/06/13 11:10:51;;;;;;;7.85;4.53;;;;;;;27.19;30.40;101241.53;4989894;28;20041;-75
2023/06/13 11:13:21;;;;;;;8.27;4.32;;;;;;;27.18;30.46;101234.44;4972634;28;20109;-76
2023/06/13 11:15:48;;;;;;;9.10;5.38;;;;;;;27.20;30.82;101234.97;4989853;28;20051;-75
2023/06/13 11:18:14;;;;;;;7.38;4.80;;;;;;;27.31;31.57;101230.94;4992950;28;20501;-75